sensor_id;sensor_type;location;lat;lon;timestamp;P1;durP1;ratioP1;P2;durP2;ratioP2
78005;SDS011;67211;42.146;24.756;2023-07-08T00:00:25;9.30;;;7.15;;
78005;SDS011;67211;42.146;24.756;2023-07-08T00:02:50;10.27;;;6.55;;
78005;SDS011;67211;42.146;24.756;2023-07-08T00:05:17;10.02;;;7.53;;
78005;SDS011;67211;42.146;24.756;2023-07-08T00:07:44;10.20;;;7.10;;
78005;SDS011;67211;42.146;24.756;2023-07-08T00:10:20;10.95;;;6.70;;
78005;SDS011;67211;42.146;24.756;2023-07-08T00:12:48;9.50;;;6.75;;
78005;SDS011;67211;42.146;24.756;2023-07-08T00:15:15;8.68;;;6.45;;
78005;SDS011;67211;42.146;24.756;2023-07-08T00:17:41;10.35;;;7.30;;
78005;SDS011;67211;42.146;24.756;2023-07-08T00:23:04;10.13;;;7.53;;
78005;SDS011;67211;42.146;24.756;2023-07-08T00:25:32;10.73;;;6.70;;
78005;SDS011;67211;42.146;24.756;2023-07-08T00:27:58;9.27;;;7.03;;
78005;SDS011;67211;42.146;24.756;2023-07-08T00:30:24;10.98;;;6.70;;
78005;SDS011;67211;42.146;24.756;2023-07-08T00:32:51;11.88;;;6.88;;
78005;SDS011;67211;42.146;24.756;2023-07-08T00:35:42;10.43;;;7.18;;
78005;SDS011;67211;42.146;24.756;2023-07-08T00:38:11;10.05;;;6.68;;
78005;SDS011;67211;42.146;24.756;2023-07-08T00:40:48;9.32;;;7.38;;
78005;SDS011;67211;42.146;24.756;2023-07-08T00:43:19;11.20;;;6.95;;
78005;SDS011;67211;42.146;24.756;2023-07-08T00:45:49;8.93;;;6.85;;
78005;SDS011;67211;42.146;24.756;2023-07-08T00:50:41;10.48;;;7.80;;
78005;SDS011;67211;42.146;24.756;2023-07-08T00:53:22;9.93;;;6.25;;
78005;SDS011;67211;42.146;24.756;2023-07-08T00:55:47;9.75;;;7.28;;
78005;SDS011;67211;42.146;24.756;2023-07-08T00:58:13;8.07;;;5.80;;
78005;SDS011;67211;42.146;24.756;2023-07-08T01:00:40;10.88;;;6.72;;
78005;SDS011;67211;42.146;24.756;2023-07-08T01:03:06;9.60;;;6.70;;
78005;SDS011;67211;42.146;24.756;2023-07-08T01:05:31;9.32;;;6.90;;
78005;SDS011;67211;42.146;24.756;2023-07-08T01:08:00;11.02;;;6.00;;
78005;SDS011;67211;42.146;24.756;2023-07-08T01:10:30;7.88;;;6.05;;
78005;SDS011;67211;42.146;24.756;2023-07-08T01:12:59;8.88;;;6.03;;
78005;SDS011;67211;42.146;24.756;2023-07-08T01:15:30;9.30;;;6.32;;
78005;SDS011;67211;42.146;24.756;2023-07-08T01:17:57;9.43;;;6.28;;
78005;SDS011;67211;42.146;24.756;2023-07-08T01:20:22;8.05;;;6.32;;
78005;SDS011;67211;42.146;24.756;2023-07-08T01:22:48;8.70;;;6.57;;
78005;SDS011;67211;42.146;24.756;2023-07-08T01:25:13;10.45;;;6.80;;
78005;SDS011;67211;42.146;24.756;2023-07-08T01:27:40;10.77;;;6.30;;
78005;SDS011;67211;42.146;24.756;2023-07-08T01:30:08;8.38;;;6.47;;
78005;SDS011;67211;42.146;24.756;2023-07-08T01:32:34;6.80;;;5.20;;
78005;SDS011;67211;42.146;24.756;2023-07-08T01:35:01;9.10;;;6.65;;
78005;SDS011;67211;42.146;24.756;2023-07-08T01:37:33;9.15;;;6.53;;
78005;SDS011;67211;42.146;24.756;2023-07-08T01:42:50;9.90;;;6.57;;
78005;SDS011;67211;42.146;24.756;2023-07-08T01:45:17;9.30;;;7.88;;
78005;SDS011;67211;42.146;24.756;2023-07-08T01:47:44;10.02;;;7.43;;
78005;SDS011;67211;42.146;24.756;2023-07-08T01:50:19;11.38;;;8.02;;
78005;SDS011;67211;42.146;24.756;2023-07-08T01:52:46;8.48;;;6.53;;
78005;SDS011;67211;42.146;24.756;2023-07-08T01:55:12;10.60;;;7.80;;
78005;SDS011;67211;42.146;24.756;2023-07-08T01:57:37;9.10;;;7.13;;
78005;SDS011;67211;42.146;24.756;2023-07-08T02:00:03;11.35;;;8.20;;
78005;SDS011;67211;42.146;24.756;2023-07-08T02:02:29;10.23;;;7.85;;
78005;SDS011;67211;42.146;24.756;2023-07-08T02:04:54;9.88;;;7.55;;
78005;SDS011;67211;42.146;24.756;2023-07-08T02:07:20;9.25;;;7.25;;
78005;SDS011;67211;42.146;24.756;2023-07-08T02:09:45;10.55;;;7.07;;
78005;SDS011;67211;42.146;24.756;2023-07-08T02:12:11;8.68;;;6.60;;
78005;SDS011;67211;42.146;24.756;2023-07-08T02:14:37;10.27;;;6.65;;
78005;SDS011;67211;42.146;24.756;2023-07-08T02:17:02;9.98;;;7.40;;
78005;SDS011;67211;42.146;24.756;2023-07-08T02:19:32;11.25;;;8.05;;
78005;SDS011;67211;42.146;24.756;2023-07-08T02:21:57;12.57;;;8.63;;
78005;SDS011;67211;42.146;24.756;2023-07-08T02:24:23;10.98;;;7.65;;
78005;SDS011;67211;42.146;24.756;2023-07-08T02:26:48;12.55;;;7.97;;
78005;SDS011;67211;42.146;24.756;2023-07-08T02:29:14;13.18;;;7.40;;
78005;SDS011;67211;42.146;24.756;2023-07-08T02:31:39;10.35;;;7.90;;
78005;SDS011;67211;42.146;24.756;2023-07-08T02:34:05;16.42;;;8.90;;
78005;SDS011;67211;42.146;24.756;2023-07-08T02:36:30;16.05;;;10.15;;
78005;SDS011;67211;42.146;24.756;2023-07-08T02:38:56;10.82;;;8.93;;
78005;SDS011;67211;42.146;24.756;2023-07-08T02:41:21;12.15;;;8.95;;
78005;SDS011;67211;42.146;24.756;2023-07-08T02:43:47;12.38;;;8.95;;
78005;SDS011;67211;42.146;24.756;2023-07-08T02:46:12;11.85;;;9.57;;
78005;SDS011;67211;42.146;24.756;2023-07-08T02:48:38;11.88;;;9.48;;
78005;SDS011;67211;42.146;24.756;2023-07-08T02:51:04;15.15;;;10.75;;
78005;SDS011;67211;42.146;24.756;2023-07-08T02:53:30;13.10;;;10.70;;
78005;SDS011;67211;42.146;24.756;2023-07-08T02:55:55;13.80;;;10.77;;
78005;SDS011;67211;42.146;24.756;2023-07-08T02:58:21;13.05;;;10.60;;
78005;SDS011;67211;42.146;24.756;2023-07-08T03:00:56;14.55;;;11.05;;
78005;SDS011;67211;42.146;24.756;2023-07-08T03:03:24;16.58;;;11.45;;
78005;SDS011;67211;42.146;24.756;2023-07-08T03:05:53;15.93;;;11.02;;
78005;SDS011;67211;42.146;24.756;2023-07-08T03:08:20;12.20;;;9.35;;
78005;SDS011;67211;42.146;24.756;2023-07-08T03:10:53;14.75;;;10.68;;
78005;SDS011;67211;42.146;24.756;2023-07-08T03:13:20;13.55;;;10.80;;
78005;SDS011;67211;42.146;24.756;2023-07-08T03:15:45;14.13;;;11.32;;
78005;SDS011;67211;42.146;24.756;2023-07-08T03:18:11;14.73;;;12.18;;
78005;SDS011;67211;42.146;24.756;2023-07-08T03:20:39;14.07;;;11.32;;
78005;SDS011;67211;42.146;24.756;2023-07-08T03:23:04;15.88;;;12.60;;
78005;SDS011;67211;42.146;24.756;2023-07-08T03:25:30;15.43;;;11.68;;
78005;SDS011;67211;42.146;24.756;2023-07-08T03:27:55;24.15;;;11.88;;
78005;SDS011;67211;42.146;24.756;2023-07-08T03:30:22;15.88;;;12.40;;
78005;SDS011;67211;42.146;24.756;2023-07-08T03:32:48;14.27;;;11.75;;
78005;SDS011;67211;42.146;24.756;2023-07-08T03:35:13;13.32;;;10.77;;
78005;SDS011;67211;42.146;24.756;2023-07-08T03:37:38;15.45;;;11.93;;
78005;SDS011;67211;42.146;24.756;2023-07-08T03:40:04;14.52;;;11.55;;
78005;SDS011;67211;42.146;24.756;2023-07-08T03:42:30;16.00;;;12.25;;
78005;SDS011;67211;42.146;24.756;2023-07-08T03:44:56;15.32;;;12.27;;
78005;SDS011;67211;42.146;24.756;2023-07-08T03:47:21;16.08;;;13.40;;
78005;SDS011;67211;42.146;24.756;2023-07-08T03:49:47;14.30;;;12.43;;
78005;SDS011;67211;42.146;24.756;2023-07-08T03:52:14;17.67;;;12.15;;
78005;SDS011;67211;42.146;24.756;2023-07-08T03:54:41;16.65;;;12.32;;
78005;SDS011;67211;42.146;24.756;2023-07-08T03:57:06;14.15;;;11.98;;
78005;SDS011;67211;42.146;24.756;2023-07-08T03:59:32;16.63;;;13.02;;
78005;SDS011;67211;42.146;24.756;2023-07-08T04:01:57;16.77;;;12.63;;
78005;SDS011;67211;42.146;24.756;2023-07-08T04:04:22;17.17;;;12.55;;
78005;SDS011;67211;42.146;24.756;2023-07-08T04:06:48;14.80;;;13.00;;
78005;SDS011;67211;42.146;24.756;2023-07-08T04:09:15;15.32;;;12.88;;
78005;SDS011;67211;42.146;24.756;2023-07-08T04:11:41;16.27;;;12.18;;
78005;SDS011;67211;42.146;24.756;2023-07-08T04:14:07;15.23;;;12.07;;
78005;SDS011;67211;42.146;24.756;2023-07-08T04:16:41;13.32;;;11.93;;
78005;SDS011;67211;42.146;24.756;2023-07-08T04:19:11;15.32;;;12.25;;
78005;SDS011;67211;42.146;24.756;2023-07-08T04:21:39;19.33;;;12.43;;
78005;SDS011;67211;42.146;24.756;2023-07-08T04:24:05;14.90;;;12.98;;
78005;SDS011;67211;42.146;24.756;2023-07-08T04:26:31;21.83;;;13.82;;
78005;SDS011;67211;42.146;24.756;2023-07-08T04:29:00;14.25;;;12.55;;
78005;SDS011;67211;42.146;24.756;2023-07-08T04:31:26;14.77;;;12.13;;
78005;SDS011;67211;42.146;24.756;2023-07-08T04:33:51;15.00;;;13.18;;
78005;SDS011;67211;42.146;24.756;2023-07-08T04:36:17;15.30;;;12.73;;
78005;SDS011;67211;42.146;24.756;2023-07-08T04:38:42;14.45;;;12.38;;
78005;SDS011;67211;42.146;24.756;2023-07-08T04:41:11;13.73;;;12.07;;
78005;SDS011;67211;42.146;24.756;2023-07-08T04:43:37;17.00;;;12.55;;
78005;SDS011;67211;42.146;24.756;2023-07-08T04:46:17;16.08;;;11.70;;
78005;SDS011;67211;42.146;24.756;2023-07-08T04:48:49;14.40;;;12.60;;
78005;SDS011;67211;42.146;24.756;2023-07-08T04:51:15;15.90;;;12.35;;
78005;SDS011;67211;42.146;24.756;2023-07-08T04:53:40;16.40;;;12.27;;
78005;SDS011;67211;42.146;24.756;2023-07-08T04:56:07;12.68;;;11.02;;
78005;SDS011;67211;42.146;24.756;2023-07-08T04:58:32;16.08;;;11.55;;
78005;SDS011;67211;42.146;24.756;2023-07-08T05:00:58;13.07;;;11.05;;
78005;SDS011;67211;42.146;24.756;2023-07-08T05:03:23;13.23;;;11.02;;
78005;SDS011;67211;42.146;24.756;2023-07-08T05:05:49;13.60;;;11.82;;
78005;SDS011;67211;42.146;24.756;2023-07-08T05:08:14;15.32;;;11.27;;
78005;SDS011;67211;42.146;24.756;2023-07-08T05:10:39;15.25;;;11.68;;
78005;SDS011;67211;42.146;24.756;2023-07-08T05:13:05;12.57;;;11.02;;
78005;SDS011;67211;42.146;24.756;2023-07-08T05:15:30;13.25;;;11.25;;
78005;SDS011;67211;42.146;24.756;2023-07-08T05:17:56;13.90;;;10.98;;
78005;SDS011;67211;42.146;24.756;2023-07-08T05:20:21;14.23;;;11.43;;
78005;SDS011;67211;42.146;24.756;2023-07-08T05:22:48;12.85;;;11.25;;
78005;SDS011;67211;42.146;24.756;2023-07-08T05:25:13;12.55;;;11.10;;
78005;SDS011;67211;42.146;24.756;2023-07-08T05:27:39;14.25;;;10.88;;
78005;SDS011;67211;42.146;24.756;2023-07-08T05:30:05;12.27;;;9.93;;
78005;SDS011;67211;42.146;24.756;2023-07-08T05:32:32;12.43;;;11.13;;
78005;SDS011;67211;42.146;24.756;2023-07-08T05:34:57;14.48;;;11.23;;
78005;SDS011;67211;42.146;24.756;2023-07-08T05:37:23;14.35;;;11.05;;
78005;SDS011;67211;42.146;24.756;2023-07-08T05:39:53;15.23;;;11.85;;
78005;SDS011;67211;42.146;24.756;2023-07-08T05:42:19;14.43;;;10.55;;
78005;SDS011;67211;42.146;24.756;2023-07-08T05:44:45;15.25;;;11.23;;
78005;SDS011;67211;42.146;24.756;2023-07-08T05:47:11;15.02;;;11.10;;
78005;SDS011;67211;42.146;24.756;2023-07-08T05:49:37;14.32;;;10.57;;
78005;SDS011;67211;42.146;24.756;2023-07-08T05:52:03;14.57;;;10.98;;
78005;SDS011;67211;42.146;24.756;2023-07-08T05:54:33;12.95;;;11.60;;
78005;SDS011;67211;42.146;24.756;2023-07-08T05:56:59;13.00;;;10.52;;
78005;SDS011;67211;42.146;24.756;2023-07-08T05:59:24;13.43;;;9.73;;
78005;SDS011;67211;42.146;24.756;2023-07-08T06:01:50;13.57;;;10.65;;
78005;SDS011;67211;42.146;24.756;2023-07-08T06:04:15;12.07;;;10.10;;
78005;SDS011;67211;42.146;24.756;2023-07-08T06:06:40;12.48;;;9.85;;
78005;SDS011;67211;42.146;24.756;2023-07-08T06:09:06;11.68;;;10.02;;
78005;SDS011;67211;42.146;24.756;2023-07-08T06:11:31;12.35;;;8.13;;
78005;SDS011;67211;42.146;24.756;2023-07-08T06:13:57;11.95;;;9.48;;
78005;SDS011;67211;42.146;24.756;2023-07-08T06:16:23;10.88;;;8.45;;
78005;SDS011;67211;42.146;24.756;2023-07-08T06:18:48;11.13;;;9.07;;
78005;SDS011;67211;42.146;24.756;2023-07-08T06:21:13;11.15;;;9.38;;
78005;SDS011;67211;42.146;24.756;2023-07-08T06:23:39;11.27;;;9.35;;
78005;SDS011;67211;42.146;24.756;2023-07-08T06:26:04;10.63;;;8.57;;
78005;SDS011;67211;42.146;24.756;2023-07-08T06:28:30;14.15;;;8.95;;
78005;SDS011;67211;42.146;24.756;2023-07-08T06:30:55;10.93;;;8.77;;
78005;SDS011;67211;42.146;24.756;2023-07-08T06:33:20;10.13;;;8.48;;
78005;SDS011;67211;42.146;24.756;2023-07-08T06:35:46;10.55;;;8.77;;
78005;SDS011;67211;42.146;24.756;2023-07-08T06:38:12;12.18;;;8.80;;
78005;SDS011;67211;42.146;24.756;2023-07-08T06:40:37;9.93;;;8.23;;
78005;SDS011;67211;42.146;24.756;2023-07-08T06:43:03;9.35;;;7.25;;
78005;SDS011;67211;42.146;24.756;2023-07-08T06:45:28;8.93;;;6.65;;
78005;SDS011;67211;42.146;24.756;2023-07-08T06:47:54;9.70;;;6.78;;
78005;SDS011;67211;42.146;24.756;2023-07-08T06:50:19;9.13;;;6.65;;
78005;SDS011;67211;42.146;24.756;2023-07-08T06:52:45;8.50;;;6.30;;
78005;SDS011;67211;42.146;24.756;2023-07-08T06:55:10;11.25;;;6.15;;
78005;SDS011;67211;42.146;24.756;2023-07-08T06:57:36;7.25;;;4.95;;
78005;SDS011;67211;42.146;24.756;2023-07-08T07:00:03;10.38;;;5.35;;
78005;SDS011;67211;42.146;24.756;2023-07-08T07:02:30;8.20;;;5.60;;
78005;SDS011;67211;42.146;24.756;2023-07-08T07:04:56;8.30;;;6.18;;
78005;SDS011;67211;42.146;24.756;2023-07-08T07:07:21;6.72;;;4.78;;
78005;SDS011;67211;42.146;24.756;2023-07-08T07:09:46;13.77;;;8.85;;
78005;SDS011;67211;42.146;24.756;2023-07-08T07:12:12;9.77;;;7.70;;
78005;SDS011;67211;42.146;24.756;2023-07-08T07:14:37;6.20;;;4.60;;
78005;SDS011;67211;42.146;24.756;2023-07-08T07:17:03;6.13;;;4.40;;
78005;SDS011;67211;42.146;24.756;2023-07-08T07:19:28;6.18;;;4.75;;
78005;SDS011;67211;42.146;24.756;2023-07-08T07:21:54;6.60;;;4.70;;
78005;SDS011;67211;42.146;24.756;2023-07-08T07:24:19;7.72;;;5.43;;
78005;SDS011;67211;42.146;24.756;2023-07-08T07:26:44;8.80;;;5.53;;
78005;SDS011;67211;42.146;24.756;2023-07-08T07:29:10;7.30;;;5.35;;
78005;SDS011;67211;42.146;24.756;2023-07-08T07:31:35;9.40;;;5.80;;
78005;SDS011;67211;42.146;24.756;2023-07-08T07:34:01;7.72;;;5.43;;
78005;SDS011;67211;42.146;24.756;2023-07-08T07:36:27;7.32;;;6.15;;
78005;SDS011;67211;42.146;24.756;2023-07-08T07:38:54;6.28;;;4.88;;
78005;SDS011;67211;42.146;24.756;2023-07-08T07:41:19;5.93;;;5.07;;
78005;SDS011;67211;42.146;24.756;2023-07-08T07:43:45;7.28;;;5.53;;
78005;SDS011;67211;42.146;24.756;2023-07-08T07:46:11;6.68;;;4.85;;
78005;SDS011;67211;42.146;24.756;2023-07-08T07:48:37;6.40;;;5.38;;
78005;SDS011;67211;42.146;24.756;2023-07-08T07:51:03;14.20;;;11.00;;
78005;SDS011;67211;42.146;24.756;2023-07-08T07:53:29;23.17;;;13.77;;
78005;SDS011;67211;42.146;24.756;2023-07-08T07:55:55;10.15;;;6.25;;
78005;SDS011;67211;42.146;24.756;2023-07-08T07:58:24;7.07;;;5.45;;
78005;SDS011;67211;42.146;24.756;2023-07-08T08:00:50;6.85;;;5.15;;
78005;SDS011;67211;42.146;24.756;2023-07-08T08:03:16;7.07;;;4.40;;
78005;SDS011;67211;42.146;24.756;2023-07-08T08:05:41;8.40;;;5.10;;
78005;SDS011;67211;42.146;24.756;2023-07-08T08:08:07;7.68;;;4.82;;
78005;SDS011;67211;42.146;24.756;2023-07-08T08:10:32;7.78;;;5.25;;
78005;SDS011;67211;42.146;24.756;2023-07-08T08:12:58;5.60;;;4.38;;
78005;SDS011;67211;42.146;24.756;2023-07-08T08:15:24;7.03;;;4.45;;
78005;SDS011;67211;42.146;24.756;2023-07-08T08:17:49;7.10;;;4.70;;
78005;SDS011;67211;42.146;24.756;2023-07-08T08:20:20;6.07;;;4.78;;
78005;SDS011;67211;42.146;24.756;2023-07-08T08:22:47;6.00;;;4.38;;
78005;SDS011;67211;42.146;24.756;2023-07-08T08:25:13;6.75;;;5.40;;
78005;SDS011;67211;42.146;24.756;2023-07-08T08:27:39;7.45;;;4.40;;
78005;SDS011;67211;42.146;24.756;2023-07-08T08:30:05;6.78;;;4.28;;
78005;SDS011;67211;42.146;24.756;2023-07-08T08:32:31;6.13;;;4.57;;
78005;SDS011;67211;42.146;24.756;2023-07-08T08:34:57;5.72;;;4.55;;
78005;SDS011;67211;42.146;24.756;2023-07-08T08:37:23;6.13;;;4.20;;
78005;SDS011;67211;42.146;24.756;2023-07-08T08:39:48;7.13;;;4.85;;
78005;SDS011;67211;42.146;24.756;2023-07-08T08:45:07;9.98;;;4.50;;
78005;SDS011;67211;42.146;24.756;2023-07-08T08:47:40;5.72;;;4.07;;
78005;SDS011;67211;42.146;24.756;2023-07-08T08:50:13;7.63;;;3.92;;
78005;SDS011;67211;42.146;24.756;2023-07-08T08:52:53;5.75;;;3.35;;
78005;SDS011;67211;42.146;24.756;2023-07-08T08:55:20;6.95;;;3.97;;
78005;SDS011;67211;42.146;24.756;2023-07-08T08:58:06;27.27;;;13.57;;
78005;SDS011;67211;42.146;24.756;2023-07-08T09:03:27;5.85;;;4.47;;
78005;SDS011;67211;42.146;24.756;2023-07-08T09:05:59;5.55;;;3.97;;
78005;SDS011;67211;42.146;24.756;2023-07-08T09:08:36;5.15;;;3.75;;
78005;SDS011;67211;42.146;24.756;2023-07-08T09:13:34;6.18;;;3.53;;
78005;SDS011;67211;42.146;24.756;2023-07-08T09:21:35;6.63;;;3.80;;
78005;SDS011;67211;42.146;24.756;2023-07-08T09:24:08;9.07;;;3.90;;
78005;SDS011;67211;42.146;24.756;2023-07-08T09:26:37;7.88;;;4.03;;
78005;SDS011;67211;42.146;24.756;2023-07-08T09:29:07;6.93;;;3.88;;
78005;SDS011;67211;42.146;24.756;2023-07-08T09:31:36;5.75;;;3.80;;
78005;SDS011;67211;42.146;24.756;2023-07-08T09:34:05;5.57;;;3.67;;
78005;SDS011;67211;42.146;24.756;2023-07-08T09:36:31;7.97;;;4.13;;
78005;SDS011;67211;42.146;24.756;2023-07-08T09:38:56;7.50;;;4.03;;
78005;SDS011;67211;42.146;24.756;2023-07-08T09:41:32;5.50;;;3.85;;
78005;SDS011;67211;42.146;24.756;2023-07-08T09:46:48;5.57;;;3.35;;
78005;SDS011;67211;42.146;24.756;2023-07-08T09:49:22;5.22;;;3.67;;
78005;SDS011;67211;42.146;24.756;2023-07-08T09:51:50;4.75;;;3.38;;
78005;SDS011;67211;42.146;24.756;2023-07-08T09:54:18;5.28;;;3.65;;
78005;SDS011;67211;42.146;24.756;2023-07-08T09:56:49;5.20;;;3.47;;
78005;SDS011;67211;42.146;24.756;2023-07-08T09:59:17;4.82;;;3.20;;
78005;SDS011;67211;42.146;24.756;2023-07-08T10:01:51;4.93;;;3.22;;
78005;SDS011;67211;42.146;24.756;2023-07-08T10:04:17;5.60;;;3.58;;
78005;SDS011;67211;42.146;24.756;2023-07-08T10:06:44;6.43;;;3.60;;
78005;SDS011;67211;42.146;24.756;2023-07-08T10:09:13;7.78;;;3.60;;
78005;SDS011;67211;42.146;24.756;2023-07-08T10:12:04;7.80;;;5.05;;
78005;SDS011;67211;42.146;24.756;2023-07-08T10:17:56;4.93;;;3.53;;
78005;SDS011;67211;42.146;24.756;2023-07-08T10:20:22;6.07;;;3.72;;
78005;SDS011;67211;42.146;24.756;2023-07-08T10:22:57;5.35;;;3.28;;
78005;SDS011;67211;42.146;24.756;2023-07-08T10:33:38;6.65;;;3.67;;
78005;SDS011;67211;42.146;24.756;2023-07-08T11:00:44;6.38;;;3.28;;
78005;SDS011;67211;42.146;24.756;2023-07-08T11:03:30;7.15;;;4.50;;
78005;SDS011;67211;42.146;24.756;2023-07-08T11:08:55;5.57;;;3.58;;
78005;SDS011;67211;42.146;24.756;2023-07-08T11:11:39;5.30;;;3.60;;
78005;SDS011;67211;42.146;24.756;2023-07-08T11:19:45;5.20;;;3.28;;
78005;SDS011;67211;42.146;24.756;2023-07-08T11:22:28;4.75;;;3.13;;
78005;SDS011;67211;42.146;24.756;2023-07-08T11:24:54;3.90;;;2.83;;
78005;SDS011;67211;42.146;24.756;2023-07-08T11:27:21;3.83;;;2.65;;
78005;SDS011;67211;42.146;24.756;2023-07-08T11:32:20;6.28;;;3.50;;
78005;SDS011;67211;42.146;24.756;2023-07-08T11:34:47;4.35;;;3.40;;
78005;SDS011;67211;42.146;24.756;2023-07-08T11:37:15;8.23;;;4.05;;
78005;SDS011;67211;42.146;24.756;2023-07-08T11:39:44;4.78;;;3.60;;
78005;SDS011;67211;42.146;24.756;2023-07-08T11:44:55;5.28;;;3.40;;
78005;SDS011;67211;42.146;24.756;2023-07-08T11:47:38;4.80;;;3.40;;
78005;SDS011;67211;42.146;24.756;2023-07-08T11:50:20;8.35;;;4.07;;
78005;SDS011;67211;42.146;24.756;2023-07-08T11:53:01;5.22;;;3.67;;
78005;SDS011;67211;42.146;24.756;2023-07-08T11:55:38;4.60;;;3.33;;
78005;SDS011;67211;42.146;24.756;2023-07-08T11:58:08;6.65;;;3.58;;
78005;SDS011;67211;42.146;24.756;2023-07-08T12:01:03;5.15;;;3.58;;
78005;SDS011;67211;42.146;24.756;2023-07-08T12:03:37;6.10;;;3.53;;
78005;SDS011;67211;42.146;24.756;2023-07-08T12:06:39;4.38;;;3.17;;
78005;SDS011;67211;42.146;24.756;2023-07-08T12:08:53;7.32;;;3.35;;
78005;SDS011;67211;42.146;24.756;2023-07-08T12:11:20;5.38;;;3.10;;
78005;SDS011;67211;42.146;24.756;2023-07-08T12:13:57;5.30;;;3.15;;
78005;SDS011;67211;42.146;24.756;2023-07-08T12:16:24;5.75;;;2.97;;
78005;SDS011;67211;42.146;24.756;2023-07-08T12:18:50;5.40;;;3.22;;
78005;SDS011;67211;42.146;24.756;2023-07-08T12:21:17;4.88;;;3.25;;
78005;SDS011;67211;42.146;24.756;2023-07-08T12:23:43;4.80;;;2.85;;
78005;SDS011;67211;42.146;24.756;2023-07-08T12:26:12;7.38;;;3.15;;
78005;SDS011;67211;42.146;24.756;2023-07-08T12:28:39;6.68;;;3.60;;
78005;SDS011;67211;42.146;24.756;2023-07-08T12:31:20;4.90;;;2.85;;
78005;SDS011;67211;42.146;24.756;2023-07-08T12:33:47;5.47;;;3.50;;
78005;SDS011;67211;42.146;24.756;2023-07-08T12:36:16;5.32;;;3.40;;
78005;SDS011;67211;42.146;24.756;2023-07-08T12:38:43;6.13;;;3.25;;
78005;SDS011;67211;42.146;24.756;2023-07-08T12:41:16;6.40;;;3.50;;
78005;SDS011;67211;42.146;24.756;2023-07-08T12:43:43;4.68;;;3.15;;
78005;SDS011;67211;42.146;24.756;2023-07-08T12:46:10;5.72;;;3.17;;
78005;SDS011;67211;42.146;24.756;2023-07-08T12:48:39;3.85;;;2.58;;
78005;SDS011;67211;42.146;24.756;2023-07-08T12:51:09;6.13;;;3.03;;
78005;SDS011;67211;42.146;24.756;2023-07-08T12:53:37;24.00;;;4.20;;
78005;SDS011;67211;42.146;24.756;2023-07-08T12:56:02;6.32;;;2.33;;
78005;SDS011;67211;42.146;24.756;2023-07-08T12:58:29;6.72;;;3.28;;
78005;SDS011;67211;42.146;24.756;2023-07-08T13:00:56;4.63;;;2.72;;
78005;SDS011;67211;42.146;24.756;2023-07-08T13:03:23;4.45;;;2.25;;
78005;SDS011;67211;42.146;24.756;2023-07-08T13:05:51;4.55;;;2.28;;
78005;SDS011;67211;42.146;24.756;2023-07-08T13:08:18;4.68;;;2.25;;
78005;SDS011;67211;42.146;24.756;2023-07-08T13:10:46;8.30;;;2.47;;
78005;SDS011;67211;42.146;24.756;2023-07-08T13:13:14;6.90;;;2.35;;
78005;SDS011;67211;42.146;24.756;2023-07-08T13:15:42;5.05;;;2.45;;
78005;SDS011;67211;42.146;24.756;2023-07-08T13:18:12;4.95;;;2.30;;
78005;SDS011;67211;42.146;24.756;2023-07-08T13:20:43;11.27;;;2.65;;
78005;SDS011;67211;42.146;24.756;2023-07-08T13:23:10;18.17;;;3.22;;
78005;SDS011;67211;42.146;24.756;2023-07-08T13:25:37;10.27;;;2.63;;
78005;SDS011;67211;42.146;24.756;2023-07-08T13:28:14;13.38;;;3.40;;
78005;SDS011;67211;42.146;24.756;2023-07-08T13:30:51;9.30;;;3.05;;
78005;SDS011;67211;42.146;24.756;2023-07-08T13:33:22;5.50;;;2.55;;
78005;SDS011;67211;42.146;24.756;2023-07-08T13:35:48;3.38;;;1.88;;
78005;SDS011;67211;42.146;24.756;2023-07-08T13:38:34;4.43;;;2.03;;
78005;SDS011;67211;42.146;24.756;2023-07-08T13:41:01;5.25;;;2.15;;
78005;SDS011;67211;42.146;24.756;2023-07-08T13:43:29;4.05;;;2.08;;
78005;SDS011;67211;42.146;24.756;2023-07-08T13:45:56;3.47;;;1.73;;
78005;SDS011;67211;42.146;24.756;2023-07-08T13:48:26;4.13;;;1.95;;
78005;SDS011;67211;42.146;24.756;2023-07-08T13:51:06;2.90;;;1.80;;
78005;SDS011;67211;42.146;24.756;2023-07-08T13:58:47;7.25;;;2.10;;
78005;SDS011;67211;42.146;24.756;2023-07-08T14:01:18;3.80;;;2.03;;
78005;SDS011;67211;42.146;24.756;2023-07-08T14:06:14;5.20;;;1.83;;
78005;SDS011;67211;42.146;24.756;2023-07-08T14:08:40;4.45;;;1.80;;
78005;SDS011;67211;42.146;24.756;2023-07-08T14:11:06;3.40;;;2.03;;
78005;SDS011;67211;42.146;24.756;2023-07-08T14:13:31;5.90;;;3.10;;
78005;SDS011;67211;42.146;24.756;2023-07-08T14:15:57;5.38;;;3.13;;
78005;SDS011;67211;42.146;24.756;2023-07-08T14:18:22;4.85;;;2.95;;
78005;SDS011;67211;42.146;24.756;2023-07-08T14:20:48;5.70;;;3.20;;
78005;SDS011;67211;42.146;24.756;2023-07-08T14:23:13;4.43;;;2.72;;
78005;SDS011;67211;42.146;24.756;2023-07-08T14:25:39;5.82;;;2.33;;
78005;SDS011;67211;42.146;24.756;2023-07-08T14:28:05;5.90;;;2.45;;
78005;SDS011;67211;42.146;24.756;2023-07-08T14:30:31;3.95;;;2.53;;
78005;SDS011;67211;42.146;24.756;2023-07-08T14:32:57;3.40;;;2.15;;
78005;SDS011;67211;42.146;24.756;2023-07-08T14:35:27;3.55;;;2.00;;
78005;SDS011;67211;42.146;24.756;2023-07-08T14:37:54;4.57;;;2.47;;
78005;SDS011;67211;42.146;24.756;2023-07-08T14:43:03;3.88;;;2.95;;
78005;SDS011;67211;42.146;24.756;2023-07-08T14:45:31;5.00;;;2.97;;
78005;SDS011;67211;42.146;24.756;2023-07-08T14:48:04;4.78;;;2.88;;
78005;SDS011;67211;42.146;24.756;2023-07-08T14:50:33;5.07;;;3.10;;
78005;SDS011;67211;42.146;24.756;2023-07-08T14:52:58;3.95;;;2.75;;
78005;SDS011;67211;42.146;24.756;2023-07-08T14:55:24;4.35;;;2.70;;
78005;SDS011;67211;42.146;24.756;2023-07-08T14:57:49;6.25;;;3.00;;
78005;SDS011;67211;42.146;24.756;2023-07-08T15:00:16;4.57;;;3.00;;
78005;SDS011;67211;42.146;24.756;2023-07-08T15:02:43;4.40;;;2.78;;
78005;SDS011;67211;42.146;24.756;2023-07-08T15:05:13;4.47;;;2.67;;
78005;SDS011;67211;42.146;24.756;2023-07-08T15:07:42;4.47;;;2.75;;
78005;SDS011;67211;42.146;24.756;2023-07-08T15:10:08;3.92;;;2.50;;
78005;SDS011;67211;42.146;24.756;2023-07-08T15:12:33;4.95;;;2.63;;
78005;SDS011;67211;42.146;24.756;2023-07-08T15:14:59;4.30;;;2.50;;
78005;SDS011;67211;42.146;24.756;2023-07-08T15:17:24;3.40;;;2.10;;
78005;SDS011;67211;42.146;24.756;2023-07-08T15:19:50;3.55;;;2.25;;
78005;SDS011;67211;42.146;24.756;2023-07-08T15:22:16;4.88;;;2.38;;
78005;SDS011;67211;42.146;24.756;2023-07-08T15:24:41;3.83;;;2.22;;
78005;SDS011;67211;42.146;24.756;2023-07-08T15:27:09;3.38;;;1.92;;
78005;SDS011;67211;42.146;24.756;2023-07-08T15:29:36;4.10;;;2.08;;
78005;SDS011;67211;42.146;24.756;2023-07-08T15:32:01;6.38;;;2.33;;
78005;SDS011;67211;42.146;24.756;2023-07-08T15:34:27;5.05;;;2.25;;
78005;SDS011;67211;42.146;24.756;2023-07-08T15:36:52;4.68;;;2.05;;
78005;SDS011;67211;42.146;24.756;2023-07-08T15:39:18;4.38;;;2.67;;
78005;SDS011;67211;42.146;24.756;2023-07-08T15:41:44;4.05;;;2.50;;
78005;SDS011;67211;42.146;24.756;2023-07-08T15:44:12;3.65;;;2.25;;
78005;SDS011;67211;42.146;24.756;2023-07-08T15:46:42;4.18;;;2.53;;
78005;SDS011;67211;42.146;24.756;2023-07-08T15:49:13;4.03;;;2.25;;
78005;SDS011;67211;42.146;24.756;2023-07-08T15:51:40;4.82;;;2.15;;
78005;SDS011;67211;42.146;24.756;2023-07-08T15:54:06;4.30;;;1.98;;